Time;durP1;ratioP1;P1;durP2;ratioP2;P2;SDS_P1;SDS_P2;PMS_P1;PMS_P2;Temp;Humidity;BMP_temperature;BMP_pressure;BME280_temperature;BME280_humidity;BME280_pressure;Samples;Min_cycle;Max_cycle;Signal;HPM_P1;HPM_P2
2023/07/08 00:02:13;;;;;;;7.80;4.50;;;17.80;99.90;;;;;;4896405;28;20505;-83
2023/07/08 00:04:40;;;;;;;6.07;3.78;;;17.80;99.90;;;;;;4899737;28;20523;-82
2023/07/08 00:07:10;;;;;;;6.22;3.58;;;17.70;99.90;;;;;;4907176;28;20482;-81
2023/07/08 00:09:36;;;;;;;5.20;3.50;;;17.70;99.90;;;;;;4898305;29;20461;-82
2023/07/08 00:12:04;;;;;;;7.63;4.63;;;17.70;99.90;;;;;;4894943;29;20877;-83
2023/07/08 00:14:30;;;;;;;6.53;4.03;;;17.70;99.90;;;;;;4936191;29;20459;-83
2023/07/08 00:16:55;;;;;;;5.80;3.77;;;17.60;99.90;;;;;;4907953;29;20458;-83
2023/07/08 00:19:23;;;;;;;6.70;3.70;;;17.60;99.90;;;;;;4907959;29;20458;-82
2023/07/08 00:21:51;;;;;;;6.32;3.55;;;17.50;99.90;;;;;;4904771;28;20435;-84
2023/07/08 00:24:17;;;;;;;6.70;4.13;;;17.50;99.90;;;;;;4891733;28;20467;-82
2023/07/08 00:26:43;;;;;;;8.57;4.35;;;17.50;99.90;;;;;;4894807;29;20438;-82
2023/07/08 00:29:12;;;;;;;6.60;4.00;;;17.50;99.90;;;;;;4897761;28;20499;-84
2023/07/08 00:31:38;;;;;;;6.43;3.83;;;17.50;99.90;;;;;;4893650;28;20445;-83
2023/07/08 00:34:04;;;;;;;7.70;4.03;;;17.50;99.90;;;;;;4898513;28;20485;-81
2023/07/08 00:36:30;;;;;;;7.30;3.85;;;17.50;99.90;;;;;;4894645;29;20450;-83
2023/07/08 00:38:57;;;;;;;6.95;4.03;;;17.40;99.90;;;;;;4900331;29;20438;-82
2023/07/08 00:41:38;;;;;;;11.10;4.18;;;17.50;99.90;;;;;;4879649;29;20454;-84
2023/07/08 00:44:04;;;;;;;8.13;4.00;;;17.40;99.90;;;;;;4897371;28;20463;-83
2023/07/08 00:46:29;;;;;;;7.57;4.28;;;17.40;99.90;;;;;;4896222;28;20971;-80
2023/07/08 00:49:23;;;;;;;6.67;3.93;;;17.40;99.90;;;;;;4887500;28;20436;-83
2023/07/08 00:51:49;;;;;;;7.03;4.00;;;17.40;99.90;;;;;;4902051;28;20433;-82
2023/07/08 00:54:17;;;;;;;5.73;3.83;;;17.30;99.90;;;;;;4926546;28;20449;-84
2023/07/08 00:56:59;;;;;;;6.37;3.93;;;17.30;99.90;;;;;;4895946;29;20522;-80
2023/07/08 00:59:37;;;;;;;5.80;3.53;;;17.30;99.90;;;;;;4895828;28;20430;-81
2023/07/08 01:02:07;;;;;;;7.50;3.90;;;17.30;99.90;;;;;;4895636;29;21018;-82
2023/07/08 01:05:04;;;;;;;5.68;4.13;;;17.20;99.90;;;;;;4896628;28;20483;-81
2023/07/08 01:07:32;;;;;;;7.85;4.15;;;17.20;99.90;;;;;;4922099;28;20451;-83
2023/07/08 01:10:03;;;;;;;7.25;3.92;;;17.50;99.90;;;;;;4894300;28;20540;-82
2023/07/08 01:12:36;;;;;;;7.40;5.18;;;17.20;99.90;;;;;;4894985;28;20447;-80
2023/07/08 01:15:04;;;;;;;6.68;3.83;;;17.20;99.90;;;;;;4894082;29;20481;-83
2023/07/08 01:17:32;;;;;;;5.57;3.97;;;17.20;99.90;;;;;;4902630;29;20930;-83
2023/07/08 01:20:06;;;;;;;7.13;4.10;;;17.10;99.90;;;;;;4887716;28;20420;-84
2023/07/08 01:22:38;;;;;;;7.35;3.83;;;17.10;99.90;;;;;;4920040;29;20435;-82
2023/07/08 01:25:05;;;;;;;8.32;4.43;;;17.10;99.90;;;;;;4895105;28;20446;-84
2023/07/08 01:27:35;;;;;;;6.97;4.57;;;17.00;99.90;;;;;;4896185;29;20439;-83
2023/07/08 01:30:03;;;;;;;10.18;4.57;;;17.00;99.90;;;;;;4895050;28;20441;-84
2023/07/08 01:32:31;;;;;;;6.15;3.80;;;17.00;99.90;;;;;;4894157;28;20454;-81
2023/07/08 01:35:00;;;;;;;7.82;4.13;;;17.00;99.90;;;;;;4896036;28;20454;-81
2023/07/08 01:37:51;;;;;;;7.60;4.18;;;16.90;99.90;;;;;;4895819;28;20431;-80
2023/07/08 01:40:25;;;;;;;8.02;4.70;;;17.00;99.90;;;;;;4894261;28;20490;-82
2023/07/08 01:42:51;;;;;;;5.93;3.93;;;17.00;99.90;;;;;;4926831;28;20438;-81
2023/07/08 01:45:20;;;;;;;6.03;4.00;;;17.00;99.90;;;;;;4899496;29;20833;-82
2023/07/08 01:47:59;;;;;;;6.43;4.13;;;16.90;99.90;;;;;;4919303;28;20498;-83
2023/07/08 01:50:27;;;;;;;6.67;4.10;;;16.90;99.90;;;;;;4900105;29;20970;-80
2023/07/08 01:52:56;;;;;;;8.60;4.65;;;16.90;99.90;;;;;;4897095;28;20443;-80
2023/07/08 01:55:28;;;;;;;7.00;4.90;;;16.90;99.90;;;;;;4893691;28;20441;-83
2023/07/08 01:57:54;;;;;;;8.38;4.43;;;16.90;99.90;;;;;;4897533;29;20494;-83
2023/07/08 02:00:21;;;;;;;6.28;4.03;;;16.90;99.90;;;;;;4898584;29;20431;-84
2023/07/08 02:02:47;;;;;;;6.30;4.43;;;16.90;99.90;;;;;;4897494;28;20439;-85
2023/07/08 02:05:13;;;;;;;6.72;4.60;;;16.90;99.90;;;;;;4925894;28;20463;-87
2023/07/08 02:07:39;;;;;;;8.77;4.53;;;16.80;99.90;;;;;;4897500;29;20439;-86
2023/07/08 02:10:05;;;;;;;7.57;4.47;;;16.90;99.90;;;;;;4898995;28;20473;-83
2023/07/08 02:12:31;;;;;;;9.73;4.50;;;16.80;99.90;;;;;;4899395;28;20506;-83
2023/07/08 02:14:57;;;;;;;7.05;4.22;;;16.80;99.90;;;;;;4897669;29;20446;-82
2023/07/08 02:17:23;;;;;;;7.10;4.88;;;16.80;99.90;;;;;;4928566;29;20525;-81
2023/07/08 02:19:49;;;;;;;12.10;5.22;;;16.70;99.90;;;;;;4900942;28;20432;-83
2023/07/08 02:22:14;;;;;;;9.60;4.55;;;16.80;99.90;;;;;;4897471;29;20458;-86
2023/07/08 02:24:40;;;;;;;6.80;4.83;;;16.60;99.90;;;;;;4897165;29;20446;-84
2023/07/08 02:27:06;;;;;;;9.67;4.73;;;16.60;99.90;;;;;;4898917;28;20439;-85
2023/07/08 02:29:32;;;;;;;7.43;4.45;;;16.60;99.90;;;;;;4906134;28;20433;-84
2023/07/08 02:31:57;;;;;;;7.13;5.00;;;16.60;99.90;;;;;;4909833;29;20449;-83
2023/07/08 02:34:23;;;;;;;6.20;4.93;;;16.60;99.90;;;;;;4897522;28;20427;-83
2023/07/08 02:36:49;;;;;;;6.95;4.70;;;16.50;99.90;;;;;;4898479;28;20564;-80
2023/07/08 02:39:15;;;;;;;7.57;4.73;;;16.40;99.90;;;;;;4888435;29;20439;-81
2023/07/08 02:41:40;;;;;;;8.17;5.00;;;16.40;99.90;;;;;;4897695;29;20540;-85
2023/07/08 02:44:06;;;;;;;8.27;4.93;;;16.30;99.90;;;;;;4913932;28;20489;-84
2023/07/08 02:46:32;;;;;;;10.30;5.45;;;16.30;99.90;;;;;;4912438;28;20469;-83
2023/07/08 02:48:57;;;;;;;8.98;5.57;;;16.30;99.90;;;;;;4898782;28;20537;-86
2023/07/08 02:51:23;;;;;;;7.43;4.87;;;16.40;99.90;;;;;;4896964;29;20793;-84
2023/07/08 02:53:49;;;;;;;6.50;5.13;;;16.30;99.90;;;;;;4899314;28;20490;-83
2023/07/08 02:56:15;;;;;;;10.30;5.07;;;16.20;99.90;;;;;;4899022;28;20522;-85
2023/07/08 02:58:41;;;;;;;7.57;5.60;;;16.30;99.90;;;;;;4939486;28;20434;-81
2023/07/08 03:01:08;;;;;;;7.23;5.10;;;16.30;99.90;;;;;;4895497;29;20542;-81
2023/07/08 03:03:35;;;;;;;7.03;4.57;;;16.20;99.90;;;;;;4906871;28;20442;-83
2023/07/08 03:06:07;;;;;;;7.60;5.53;;;16.20;99.90;;;;;;4901535;29;20463;-84
2023/07/08 03:08:33;;;;;;;7.68;5.82;;;16.20;99.90;;;;;;4900963;29;20439;-85
2023/07/08 03:11:02;;;;;;;6.85;4.40;;;16.30;99.90;;;;;;4899421;29;20469;-81
2023/07/08 03:13:29;;;;;;;8.32;4.85;;;16.20;99.90;;;;;;4895223;28;21000;-84
2023/07/08 03:15:55;;;;;;;6.60;5.30;;;16.20;99.90;;;;;;4902934;28;20487;-83
2023/07/08 03:18:23;;;;;;;7.55;4.68;;;16.20;99.90;;;;;;4902958;28;20427;-81
2023/07/08 03:20:49;;;;;;;5.97;5.07;;;16.30;99.90;;;;;;4903888;29;20443;-81
2023/07/08 03:23:15;;;;;;;9.13;5.30;;;16.30;99.90;;;;;;4899271;29;20475;-83
2023/07/08 03:25:40;;;;;;;10.25;5.53;;;16.20;99.90;;;;;;4893521;28;20461;-84
2023/07/08 03:28:13;;;;;;;7.53;5.20;;;16.30;99.90;;;;;;4900712;28;20441;-83
2023/07/08 03:30:40;;;;;;;7.47;5.68;;;16.30;99.90;;;;;;4888382;29;20444;-86
2023/07/08 03:33:06;;;;;;;6.90;5.68;;;16.30;99.90;;;;;;4921259;29;20435;-83
2023/07/08 03:35:31;;;;;;;10.45;5.47;;;16.30;99.90;;;;;;4904502;28;20809;-85
2023/07/08 03:37:57;;;;;;;9.10;5.72;;;16.30;99.90;;;;;;4905397;28;20427;-80
2023/07/08 03:40:23;;;;;;;9.97;5.90;;;16.30;99.90;;;;;;4914491;28;20445;-81
2023/07/08 03:42:48;;;;;;;8.33;6.40;;;16.30;99.90;;;;;;4908881;29;20760;-83
2023/07/08 03:45:14;;;;;;;9.50;5.50;;;16.30;99.90;;;;;;4901309;29;20522;-82
2023/07/08 03:47:40;;;;;;;8.63;5.68;;;16.30;99.90;;;;;;4900367;28;20458;-85
2023/07/08 03:50:12;;;;;;;8.00;5.25;;;16.30;99.90;;;;;;4906391;29;20443;-84
2023/07/08 03:52:38;;;;;;;7.18;4.93;;;16.30;99.90;;;;;;4900105;28;20471;-82
2023/07/08 03:55:05;;;;;;;9.68;5.25;;;16.30;99.90;;;;;;4894049;28;20473;-84
2023/07/08 03:57:30;;;;;;;8.38;5.25;;;16.20;99.90;;;;;;4897486;29;20447;-81
2023/07/08 03:59:56;;;;;;;7.80;5.97;;;16.20;99.90;;;;;;4909385;28;20448;-83
2023/07/08 04:02:22;;;;;;;9.40;5.70;;;16.20;99.90;;;;;;4896389;28;20466;-81
2023/07/08 04:04:47;;;;;;;7.70;5.47;;;16.20;99.90;;;;;;4898038;29;20483;-85
2023/07/08 04:07:14;;;;;;;9.18;5.35;;;16.30;99.90;;;;;;4895376;28;20916;-83
2023/07/08 04:09:39;;;;;;;7.57;4.82;;;16.20;99.90;;;;;;4906055;28;20439;-85
2023/07/08 04:12:05;;;;;;;8.20;4.93;;;16.30;99.90;;;;;;4898364;29;20458;-85
2023/07/08 04:14:31;;;;;;;10.38;6.22;;;16.20;99.90;;;;;;4898500;28;20527;-84
2023/07/08 04:16:58;;;;;;;10.43;5.25;;;16.40;99.90;;;;;;4895871;28;20610;-82
2023/07/08 04:19:26;;;;;;;6.85;5.57;;;16.40;99.90;;;;;;4895856;29;20451;-84
2023/07/08 04:21:53;;;;;;;6.85;5.18;;;16.50;99.90;;;;;;4897247;28;20455;-84
2023/07/08 04:24:18;;;;;;;6.03;4.80;;;16.40;99.90;;;;;;4893992;28;20455;-85
2023/07/08 04:26:47;;;;;;;8.05;5.38;;;16.40;99.90;;;;;;4897842;28;20454;-82
2023/07/08 04:29:17;;;;;;;7.10;5.60;;;16.50;99.90;;;;;;4897124;28;20458;-85
2023/07/08 04:31:43;;;;;;;7.15;5.70;;;16.40;99.90;;;;;;4896852;29;20453;-84
2023/07/08 04:34:09;;;;;;;10.43;5.73;;;16.50;99.90;;;;;;4899341;29;20439;-85
2023/07/08 04:36:35;;;;;;;8.15;5.50;;;17.70;99.90;;;;;;4890267;28;20453;-83
2023/07/08 04:39:05;;;;;;;7.38;4.88;;;17.40;99.90;;;;;;4917937;28;20522;-85
2023/07/08 04:41:31;;;;;;;6.40;5.43;;;17.60;99.90;;;;;;4896306;29;20439;-81
2023/07/08 04:44:02;;;;;;;8.33;6.00;;;17.00;99.90;;;;;;4897010;28;20882;-83
2023/07/08 04:46:38;;;;;;;6.93;5.20;;;17.00;99.90;;;;;;4902821;28;20436;-86
2023/07/08 04:49:06;;;;;;;9.02;5.93;;;17.00;99.90;;;;;;4901818;29;20450;-82
2023/07/08 04:51:32;;;;;;;10.75;5.93;;;17.30;99.90;;;;;;4903710;28;20459;-84
2023/07/08 04:53:57;;;;;;;8.63;5.63;;;18.00;99.90;;;;;;4898745;28;20443;-83
2023/07/08 04:56:33;;;;;;;6.90;5.10;;;17.30;99.90;;;;;;4899063;28;20462;-85
2023/07/08 04:58:59;;;;;;;8.48;5.00;;;17.20;99.90;;;;;;4880209;28;20445;-85
2023/07/08 05:01:26;;;;;;;8.23;5.30;;;17.10;99.90;;;;;;4898041;28;20442;-83
2023/07/08 05:03:52;;;;;;;7.40;5.53;;;17.10;99.90;;;;;;4923701;28;20437;-86
2023/07/08 05:06:17;;;;;;;6.95;5.60;;;17.20;99.90;;;;;;4894882;28;20492;-85
2023/07/08 05:08:43;;;;;;;8.13;4.80;;;17.30;99.90;;;;;;4896235;28;20466;-85
2023/07/08 05:11:09;;;;;;;7.47;5.13;;;17.30;99.90;;;;;;4895246;28;20464;-85
2023/07/08 05:13:35;;;;;;;9.43;5.30;;;17.40;99.90;;;;;;4893139;29;20447;-84
2023/07/08 05:16:00;;;;;;;7.18;5.05;;;17.40;99.90;;;;;;4912941;28;20801;-85
2023/07/08 05:18:26;;;;;;;7.30;4.85;;;17.40;99.90;;;;;;4898624;28;20427;-86
2023/07/08 05:20:54;;;;;;;7.27;4.90;;;17.40;99.90;;;;;;4897222;29;20449;-87
2023/07/08 05:23:20;;;;;;;7.68;5.53;;;17.50;99.90;;;;;;4897188;29;20451;-83
2023/07/08 05:25:46;;;;;;;7.70;5.03;;;17.60;99.90;;;;;;4889862;29;20444;-85
2023/07/08 05:28:12;;;;;;;8.10;5.80;;;17.60;99.90;;;;;;4897650;28;20435;-80
2023/07/08 05:30:40;;;;;;;6.90;4.88;;;17.60;99.90;;;;;;4891857;28;20446;-84
2023/07/08 05:33:06;;;;;;;6.37;4.37;;;17.80;99.90;;;;;;4900555;28;20520;-86
2023/07/08 05:35:32;;;;;;;8.67;5.20;;;17.90;99.90;;;;;;4927314;29;20478;-84
2023/07/08 05:37:57;;;;;;;7.13;4.93;;;17.90;99.90;;;;;;4910651;29;20427;-83
2023/07/08 05:40:23;;;;;;;8.32;5.10;;;18.00;99.90;;;;;;4879947;28;20452;-84
2023/07/08 05:42:49;;;;;;;7.78;4.40;;;18.00;99.90;;;;;;4894952;29;20940;-82
2023/07/08 05:45:15;;;;;;;6.13;4.60;;;18.10;99.90;;;;;;4899498;28;20442;-85
2023/07/08 05:47:40;;;;;;;7.30;4.43;;;18.20;99.90;;;;;;4900370;28;20445;-82
2023/07/08 05:50:07;;;;;;;5.23;4.00;;;18.40;99.90;;;;;;4899956;29;20457;-86
2023/07/08 05:52:33;;;;;;;8.38;4.45;;;18.40;99.90;;;;;;4899801;28;20505;-81
2023/07/08 05:54:58;;;;;;;7.70;4.13;;;18.90;99.90;;;;;;4898780;28;20482;-87
2023/07/08 05:57:24;;;;;;;6.33;4.57;;;18.70;99.90;;;;;;4898516;28;21019;-86
2023/07/08 05:59:53;;;;;;;7.57;4.80;;;18.60;99.90;;;;;;4880590;29;20443;-79
2023/07/08 06:02:25;;;;;;;6.93;4.15;;;18.60;99.90;;;;;;4922351;28;20486;-83
2023/07/08 06:04:51;;;;;;;9.10;4.40;;;18.60;99.90;;;;;;4913952;29;20493;-81
2023/07/08 06:07:17;;;;;;;7.65;4.63;;;18.60;99.90;;;;;;4899047;29;20435;-85
2023/07/08 06:09:43;;;;;;;5.97;3.95;;;18.70;99.90;;;;;;4899107;28;20785;-82
2023/07/08 06:12:11;;;;;;;8.20;5.07;;;18.80;99.90;;;;;;4898491;28;20450;-85
2023/07/08 06:14:38;;;;;;;7.15;4.60;;;18.80;99.90;;;;;;4883944;28;20443;-80
2023/07/08 06:17:04;;;;;;;7.50;4.55;;;18.90;99.90;;;;;;4929533;28;20868;-84
2023/07/08 06:19:30;;;;;;;7.20;4.40;;;19.00;99.90;;;;;;4900044;28;20510;-80
2023/07/08 06:21:56;;;;;;;8.17;5.00;;;19.00;99.90;;;;;;4906919;28;20426;-81
2023/07/08 06:24:21;;;;;;;6.65;3.88;;;19.10;99.90;;;;;;4907673;29;20569;-82
2023/07/08 06:26:47;;;;;;;7.43;4.30;;;19.20;99.90;;;;;;4900112;28;20469;-83
2023/07/08 06:29:13;;;;;;;5.70;3.57;;;19.20;99.90;;;;;;4901415;29;20510;-84
2023/07/08 06:31:39;;;;;;;7.13;3.90;;;19.30;99.90;;;;;;4904185;28;20415;-90
2023/07/08 06:34:05;;;;;;;5.03;3.50;;;19.40;99.90;;;;;;4909260;29;20429;-88
2023/07/08 06:36:31;;;;;;;7.28;3.83;;;19.50;99.90;;;;;;4931354;28;20454;-83
2023/07/08 06:38:57;;;;;;;5.70;3.78;;;19.50;99.90;;;;;;4898355;29;20431;-87
2023/07/08 06:41:23;;;;;;;5.90;3.77;;;19.50;99.90;;;;;;4903372;29;20435;-86
2023/07/08 06:43:49;;;;;;;6.40;3.50;;;19.70;99.90;;;;;;4894057;28;20435;-87
2023/07/08 06:46:16;;;;;;;5.05;3.00;;;19.70;99.90;;;;;;4956925;28;20451;-85
2023/07/08 06:48:41;;;;;;;6.70;3.90;;;19.80;99.90;;;;;;4986422;28;20424;-91
2023/07/08 06:51:08;;;;;;;4.75;3.80;;;20.00;99.90;;;;;;4922962;28;20451;-87
2023/07/08 06:53:34;;;;;;;7.10;3.78;;;20.00;99.90;;;;;;4922488;28;20439;-84
2023/07/08 06:56:01;;;;;;;4.85;3.50;;;20.40;99.90;;;;;;4915023;28;20455;-83
2023/07/08 06:58:28;;;;;;;7.88;4.18;;;20.70;99.90;;;;;;4928985;28;20430;-84
2023/07/08 07:00:54;;;;;;;4.95;3.25;;;21.10;99.90;;;;;;4887433;28;20461;-88
2023/07/08 07:03:19;;;;;;;5.65;3.35;;;21.20;99.90;;;;;;4895903;28;20409;-86
2023/07/08 07:05:45;;;;;;;4.63;3.67;;;22.40;99.90;;;;;;4902370;28;20435;-84
2023/07/08 07:08:11;;;;;;;6.88;3.13;;;23.00;99.90;;;;;;4940736;29;20430;-86
2023/07/08 07:10:37;;;;;;;7.90;3.20;;;23.50;99.90;;;;;;4906375;28;20435;-89
2023/07/08 07:13:03;;;;;;;6.70;3.00;;;23.60;99.90;;;;;;4883879;29;20443;-85
2023/07/08 07:15:30;;;;;;;7.83;3.80;;;24.00;99.90;;;;;;4896322;28;20538;-78
2023/07/08 07:17:56;;;;;;;5.55;3.38;;;24.40;99.90;;;;;;4896006;28;21158;-82
2023/07/08 07:20:22;;;;;;;5.28;3.03;;;24.30;99.90;;;;;;4898145;28;20490;-83
2023/07/08 07:22:48;;;;;;;7.10;3.75;;;24.10;99.90;;;;;;4899964;29;20428;-83
2023/07/08 07:25:14;;;;;;;4.97;3.33;;;24.70;99.90;;;;;;4878077;29;20513;-83
2023/07/08 07:27:39;;;;;;;7.22;3.00;;;25.20;99.90;;;;;;4893716;29;20896;-76
2023/07/08 07:30:06;;;;;;;8.60;3.10;;;25.20;99.90;;;;;;4897163;29;20419;-82
2023/07/08 07:32:33;;;;;;;5.17;2.83;;;25.50;99.90;;;;;;4895905;29;20493;-78
2023/07/08 07:34:59;;;;;;;7.75;3.38;;;26.10;99.90;;;;;;4895877;29;20501;-81
2023/07/08 07:37:25;;;;;;;5.10;2.70;;;25.90;99.90;;;;;;4896348;28;20415;-84
2023/07/08 07:39:51;;;;;;;6.07;2.70;;;25.90;99.90;;;;;;4896083;29;20431;-81
2023/07/08 07:42:19;;;;;;;5.18;3.08;;;26.20;99.90;;;;;;4895969;29;20567;-79
2023/07/08 07:44:45;;;;;;;5.63;3.20;;;26.30;99.90;;;;;;4896471;29;20419;-81
2023/07/08 07:47:11;;;;;;;4.93;2.73;;;26.00;99.90;;;;;;4899468;28;20447;-79
2023/07/08 07:49:38;;;;;;;5.47;2.78;;;27.30;99.90;;;;;;4888196;29;20437;-77
2023/07/08 07:52:05;;;;;;;3.97;2.65;;;26.40;99.90;;;;;;4894253;28;20453;-78
2023/07/08 07:54:31;;;;;;;3.85;2.60;;;24.80;99.90;;;;;;4904289;29;20470;-82
2023/07/08 07:56:57;;;;;;;4.97;2.70;;;24.80;99.90;;;;;;4905090;28;20423;-85
2023/07/08 07:59:23;;;;;;;4.60;2.90;;;24.40;99.90;;;;;;4902060;28;20442;-88
2023/07/08 08:01:48;;;;;;;5.40;2.67;;;24.20;99.90;;;;;;4933238;29;20430;-85
2023/07/08 08:04:14;;;;;;;6.50;3.70;;;24.20;99.90;;;;;;4900281;28;20486;-84
2023/07/08 08:06:40;;;;;;;5.90;2.60;;;24.00;99.90;;;;;;4899648;29;20484;-77
2023/07/08 08:09:07;;;;;;;3.63;2.63;;;24.30;99.90;;;;;;4900595;29;20459;-86
2023/07/08 08:11:33;;;;;;;7.10;3.53;;;24.20;99.90;;;;;;4901769;28;20423;-81
2023/07/08 08:14:00;;;;;;;4.57;2.80;;;24.00;99.90;;;;;;4896515;28;20450;-77
2023/07/08 08:16:26;;;;;;;7.50;3.55;;;24.20;99.90;;;;;;4895396;28;20462;-81
2023/07/08 08:18:52;;;;;;;6.03;2.67;;;24.10;99.90;;;;;;4896681;29;20434;-84
2023/07/08 08:21:17;;;;;;;5.55;2.90;;;24.30;99.90;;;;;;4897648;29;20960;-81
2023/07/08 08:23:43;;;;;;;6.33;2.70;;;24.40;99.90;;;;;;4904360;29;20828;-81
2023/07/08 08:26:09;;;;;;;5.72;3.08;;;24.40;99.90;;;;;;4910527;29;20995;-82
2023/07/08 08:28:34;;;;;;;5.57;3.17;;;24.20;99.90;;;;;;4889045;29;21000;-79
2023/07/08 08:31:00;;;;;;;3.50;2.60;;;24.70;99.90;;;;;;4896535;29;20443;-83
2023/07/08 08:33:26;;;;;;;7.93;2.70;;;24.80;99.90;;;;;;4902794;29;20796;-84
2023/07/08 08:35:52;;;;;;;10.43;2.90;;;24.60;99.90;;;;;;4898482;28;20442;-84
2023/07/08 08:38:17;;;;;;;8.70;3.17;;;24.60;99.90;;;;;;4895459;29;20431;-84
2023/07/08 08:40:44;;;;;;;6.10;2.50;;;24.70;99.90;;;;;;4897081;29;20539;-81
2023/07/08 08:43:14;;;;;;;5.20;2.58;;;25.30;99.90;;;;;;4898591;29;20427;-76
2023/07/08 08:46:26;;;;;;;5.13;3.28;;;25.20;99.90;;;;;;4896935;29;20654;-76
2023/07/08 08:49:22;;;;;;;5.45;3.50;;;25.20;99.90;;;;;;4888203;29;20439;-81
2023/07/08 08:51:50;;;;;;;5.50;2.75;;;25.10;99.90;;;;;;4898091;29;20419;-84
2023/07/08 08:54:16;;;;;;;4.60;2.65;;;25.00;99.90;;;;;;4863691;29;20448;-82
2023/07/08 08:56:57;;;;;;;3.83;2.67;;;25.40;99.90;;;;;;4885204;28;20745;-84
2023/07/08 08:59:52;;;;;;;5.53;2.83;;;25.50;99.90;;;;;;4894242;28;20933;-83
2023/07/08 09:02:40;;;;;;;6.72;3.05;;;25.60;99.90;;;;;;4929044;28;20493;-85
2023/07/08 09:05:09;;;;;;;4.93;2.92;;;25.40;99.90;;;;;;4897301;29;20509;-81
2023/07/08 09:08:03;;;;;;;10.55;3.70;;;25.60;99.90;;;;;;4892825;28;20439;-81
2023/07/08 09:11:02;;;;;;;4.63;3.00;;;25.60;99.90;;;;;;4895217;29;20447;-83
2023/07/08 09:13:30;;;;;;;4.40;2.80;;;25.90;99.90;;;;;;4896362;28;20442;-78
2023/07/08 09:16:05;;;;;;;4.47;3.00;;;25.80;99.90;;;;;;4892227;29;20457;-80
2023/07/08 09:18:38;;;;;;;7.43;3.13;;;25.70;99.90;;;;;;4897906;29;20440;-76
2023/07/08 09:21:19;;;;;;;4.78;3.00;;;25.60;99.90;;;;;;4904083;29;20479;-75
2023/07/08 09:23:47;;;;;;;5.67;3.07;;;25.80;99.90;;;;;;4900167;28;20431;-83
2023/07/08 09:26:23;;;;;;;6.03;3.20;;;25.80;99.90;;;;;;4903358;28;20450;-80
2023/07/08 09:28:49;;;;;;;3.20;2.67;;;26.00;99.90;;;;;;4901735;29;20431;-83
2023/07/08 09:31:26;;;;;;;5.30;2.97;;;26.10;99.90;;;;;;4901920;29;20446;-83
2023/07/08 09:34:04;;;;;;;4.95;3.42;;;26.40;99.90;;;;;;4906590;29;20448;-81
2023/07/08 09:36:29;;;;;;;5.57;2.90;;;26.50;99.90;;;;;;4897181;29;20441;-85
2023/07/08 09:38:55;;;;;;;8.40;3.23;;;26.10;99.90;;;;;;4907832;29;20531;-81
2023/07/08 09:41:34;;;;;;;7.32;2.80;;;26.40;99.90;;;;;;4889175;28;20546;-79
2023/07/08 09:44:33;;;;;;;4.72;3.17;;;26.50;99.90;;;;;;4886378;28;20431;-79
2023/07/08 09:46:59;;;;;;;3.47;2.80;;;26.50;99.90;;;;;;4900983;29;20502;-80
2023/07/08 09:49:32;;;;;;;6.82;2.83;;;26.60;99.90;;;;;;4913334;28;20457;-78
2023/07/08 09:51:59;;;;;;;3.20;2.37;;;26.70;99.90;;;;;;4912124;29;20453;-84
2023/07/08 09:54:26;;;;;;;5.47;2.75;;;26.70;99.90;;;;;;4922932;28;20447;-84
2023/07/08 09:56:59;;;;;;;6.43;2.67;;;26.90;99.90;;;;;;4938388;28;20521;-80
2023/07/08 09:59:37;;;;;;;4.43;3.00;;;27.20;99.90;;;;;;4901293;29;20470;-83
2023/07/08 10:02:37;;;;;;;4.15;2.83;;;27.20;99.90;;;;;;4903934;29;20447;-85
2023/07/08 10:05:28;;;;;;;5.75;3.15;;;27.40;99.90;;;;;;4902749;28;21004;-85
2023/07/08 10:07:56;;;;;;;8.35;3.17;;;27.10;99.90;;;;;;4901778;28;20438;-84
2023/07/08 10:10:32;;;;;;;5.80;2.92;;;27.10;99.90;;;;;;4901353;29;20461;-84
2023/07/08 10:13:20;;;;;;;5.82;3.55;;;27.20;99.90;;;;;;4884612;28;20447;-81
2023/07/08 10:15:54;;;;;;;9.10;4.00;;;27.10;99.90;;;;;;4900700;28;20441;-88
2023/07/08 10:18:29;;;;;;;4.80;3.22;;;27.20;99.90;;;;;;4924073;28;20439;-84
2023/07/08 10:21:24;;;;;;;5.50;3.45;;;27.10;99.90;;;;;;4903453;29;20438;-84
2023/07/08 10:24:08;;;;;;;5.03;2.83;;;27.60;99.90;;;;;;4905002;28;20864;-78
2023/07/08 10:26:35;;;;;;;6.78;3.00;;;27.60;99.90;;;;;;4913525;29;20437;-82
2023/07/08 10:29:26;;;;;;;4.22;3.55;;;27.50;99.90;;;;;;4925838;28;20462;-81
2023/07/08 10:31:59;;;;;;;5.40;3.03;;;27.70;99.90;;;;;;4894148;28;20417;-79
2023/07/08 10:34:34;;;;;;;3.10;2.80;;;27.90;99.90;;;;;;4905785;28;20431;-85
2023/07/08 10:37:26;;;;;;;7.60;3.40;;;27.90;99.90;;;;;;4889526;29;20459;-83
2023/07/08 10:39:52;;;;;;;7.72;3.13;;;28.00;99.90;;;;;;4903311;29;20513;-83
2023/07/08 10:42:18;;;;;;;6.13;2.72;;;28.00;99.90;;;;;;4913427;28;20468;-84
2023/07/08 10:44:50;;;;;;;6.30;3.23;;;28.10;99.90;;;;;;4899724;28;20435;-81
2023/07/08 10:47:33;;;;;;;5.07;2.75;;;28.20;99.90;;;;;;4902464;28;20434;-83
2023/07/08 10:50:14;;;;;;;4.03;2.85;;;28.10;99.90;;;;;;4902267;29;20506;-82
2023/07/08 10:52:50;;;;;;;3.67;2.87;;;28.20;99.90;;;;;;4900059;28;20806;-83
2023/07/08 10:55:31;;;;;;;7.72;3.17;;;28.20;99.90;;;;;;4907923;28;20957;-81
2023/07/08 10:58:17;;;;;;;6.10;3.25;;;28.20;99.90;;;;;;4911048;28;20442;-82
2023/07/08 11:01:03;;;;;;;6.82;3.70;;;28.10;99.90;;;;;;4910985;28;20494;-85
2023/07/08 11:03:31;;;;;;;5.22;2.92;;;28.20;99.90;;;;;;4905058;29;20443;-84
2023/07/08 11:06:03;;;;;;;6.38;3.10;;;28.30;99.90;;;;;;4933217;28;20439;-83
2023/07/08 11:08:37;;;;;;;6.55;3.05;;;28.70;99.90;;;;;;4940448;28;20796;-85
2023/07/08 11:11:39;;;;;;;7.50;3.90;;;28.50;99.90;;;;;;4929686;29;20446;-81
2023/07/08 11:14:18;;;;;;;4.40;2.90;;;28.80;99.90;;;;;;4900239;28;20478;-84
2023/07/08 11:16:57;;;;;;;3.08;2.75;;;28.90;99.90;;;;;;4931223;29;20453;-81
2023/07/08 11:19:47;;;;;;;8.30;3.10;;;28.80;99.90;;;;;;4891846;29;20499;-85
2023/07/08 11:22:14;;;;;;;6.22;3.67;;;29.00;99.90;;;;;;4900730;29;20446;-84
2023/07/08 11:24:48;;;;;;;7.38;2.83;;;29.20;99.90;;;;;;4897273;28;20446;-82
2023/07/08 11:27:32;;;;;;;7.07;3.40;;;29.10;99.90;;;;;;4899223;29;20442;-84
2023/07/08 11:30:01;;;;;;;4.30;2.95;;;29.30;99.90;;;;;;4899013;29;21480;-83
2023/07/08 11:32:29;;;;;;;6.30;3.25;;;29.10;95.70;;;;;;4900531;28;20438;-80
2023/07/08 11:34:57;;;;;;;5.10;3.50;;;29.40;95.90;;;;;;4884474;28;20482;-86
2023/07/08 11:37:24;;;;;;;6.82;3.38;;;29.30;97.40;;;;;;4900594;29;20459;-83
2023/07/08 11:39:57;;;;;;;9.55;4.10;;;29.40;96.70;;;;;;4901703;28;20874;-78
2023/07/08 11:42:40;;;;;;;6.22;3.22;;;29.70;95.90;;;;;;4900861;29;20457;-79
2023/07/08 11:45:18;;;;;;;9.07;3.97;;;29.70;95.50;;;;;;4900876;28;20427;-89
2023/07/08 11:47:47;;;;;;;4.25;2.75;;;29.60;94.70;;;;;;4900371;28;20442;-85
2023/07/08 11:50:28;;;;;;;4.28;3.22;;;29.90;95.70;;;;;;4900669;29;20470;-86
2023/07/08 11:53:06;;;;;;;8.18;3.30;;;30.10;83.70;;;;;;4897998;28;20439;-84
2023/07/08 11:55:42;;;;;;;5.10;3.53;;;30.00;94.90;;;;;;4886167;29;20457;-81
2023/07/08 11:58:26;;;;;;;8.17;3.70;;;30.00;90.00;;;;;;4904947;28;20435;-90
2023/07/08 12:01:24;;;;;;;4.95;3.60;;;29.80;86.90;;;;;;4896067;28;20484;-83
2023/07/08 12:03:54;;;;;;;7.47;3.67;;;29.90;92.80;;;;;;4919044;28;20439;-85
2023/07/08 12:06:26;;;;;;;5.75;3.70;;;30.20;95.20;;;;;;4904580;29;21098;-81
2023/07/08 12:09:14;;;;;;;5.35;3.63;;;29.90;91.70;;;;;;4936020;29;20438;-84
2023/07/08 12:11:43;;;;;;;6.63;3.60;;;30.20;90.70;;;;;;4902413;29;20443;-85
2023/07/08 12:14:09;;;;;;;3.92;3.53;;;30.20;92.60;;;;;;4906209;29;20418;-88
2023/07/08 12:16:35;;;;;;;5.77;3.57;;;30.30;87.30;;;;;;4887769;29;20960;-84
2023/07/08 12:19:04;;;;;;;6.90;4.20;;;30.10;93.80;;;;;;4898844;29;20441;-87
2023/07/08 12:21:33;;;;;;;5.72;4.03;;;30.20;93.40;;;;;;4888487;28;20485;-84
2023/07/08 12:24:06;;;;;;;5.13;3.70;;;30.10;93.90;;;;;;4901863;29;20435;-83
2023/07/08 12:26:33;;;;;;;5.78;3.40;;;30.30;97.30;;;;;;4901826;28;20434;-85
2023/07/08 12:28:58;;;;;;;5.93;3.80;;;30.10;92.80;;;;;;4896512;28;20436;-87
2023/07/08 12:31:25;;;;;;;5.10;3.92;;;30.10;92.20;;;;;;4902454;29;20458;-88
2023/07/08 12:33:55;;;;;;;5.65;3.28;;;30.30;92.90;;;;;;4901081;29;20643;-82
2023/07/08 12:36:26;;;;;;;5.10;3.72;;;30.40;92.90;;;;;;4911968;29;20567;-83
2023/07/08 12:38:55;;;;;;;5.43;3.88;;;30.50;94.40;;;;;;4894844;28;20516;-85
2023/07/08 12:41:27;;;;;;;4.75;3.92;;;30.60;90.60;;;;;;4957308;28;20430;-84
2023/07/08 12:43:53;;;;;;;8.55;3.85;;;30.40;92.90;;;;;;4895940;29;21037;-85
2023/07/08 12:46:21;;;;;;;5.20;3.30;;;30.50;85.60;;;;;;4895533;29;20435;-79
2023/07/08 12:48:47;;;;;;;5.10;3.53;;;30.50;87.50;;;;;;4896131;29;20442;-81
2023/07/08 12:51:20;;;;;;;4.80;3.58;;;30.50;93.20;;;;;;4898707;28;20435;-82
2023/07/08 12:53:47;;;;;;;7.70;3.72;;;30.40;94.70;;;;;;4889664;29;20582;-80
2023/07/08 12:56:14;;;;;;;11.70;4.38;;;30.60;91.30;;;;;;4895896;29;20439;-82
2023/07/08 12:58:43;;;;;;;9.13;4.40;;;30.80;90.50;;;;;;4901173;29;20441;-79
2023/07/08 13:01:16;;;;;;;5.45;3.53;;;30.80;84.00;;;;;;4896323;29;20458;-77